Accueil
METAR-TAF:

METAR-TAF

Aéroports :

Woensdrecht, Pays-Bas

latitude: 51-27N, longitude: 004-20E, altitude: 20 m

Observation

Le bulletin a été fait il y a 38 minutes, à 02:25 UTC
Vent 2 kt de sud/sud-ouest
Température 15°C
Humidité 100%
Pression 1016 hPa
Visibilité 10 km ou plus
Nuages épars à une hauteur de 3000 ft
Nuages épars à une hauteur de 9200 ft
Ciel couvert à une hauteur de 10000 ft

METAR: EHWO 170225Z AUTO 21002KT 9999 SCT030 SCT092 OVC100 15/15 Q1016 BLU

Heure: 05:03 (03:03 UTC)

Prévision

Le bulletin a été fait il y a 15 heures et 5 minutes, à 11:58 UTC
Prévision valable du 16 à 13 UTC au 17 à 01 UTC
Vent 7 kt de sud-ouest
Visibilité 10 km ou plus
Nuages épars à une hauteur de 3000 ft
Temporairement
du 16 à 20 UTC au 17 à 01 UTC
Visibilité: 4000 m
Nuages épars à une hauteur de 3000 ft, Cumulonimbus.
averses de pluie, pluie

TAF: EHWO 161158Z 1613/1701 23007KT 9999 SCT030 TEMPO 1620/1701 4000 SHRA RA SCT030CB

Observations et prévisions météorologiques de plus de 4000 aéroports (messages METAR et TAF).

Les stations disponibles sont représentées par des disques jaunes et rouges sur la carte.

Passer la souris dessus pour voir le nom de la station.

Cliquer dessus pour voir les observations et prévisions météorologiques.

Pour changer de carte: cliquez sur les boutons verts avec une croix noire pour zoomer, sur le bouton vert avec un tiret pour effectuer un zoom arrière, ou sur les flèches vertes pour les cartes adjacentes.


METAR-TAF: